sensor_id;sensor_type;location;lat;lon;timestamp;temperature;humidity
13616;DHT22;6879;51.368;6.782;2023-04-03T00:02:03;-1.20;99.90
13616;DHT22;6879;51.368;6.782;2023-04-03T00:04:32;-1.30;99.90
13616;DHT22;6879;51.368;6.782;2023-04-03T00:07:03;-1.30;99.90
13616;DHT22;6879;51.368;6.782;2023-04-03T00:09:37;-1.20;99.90
13616;DHT22;6879;51.368;6.782;2023-04-03T00:12:14;-1.10;99.90
13616;DHT22;6879;51.368;6.782;2023-04-03T00:15:35;-1.20;99.90
13616;DHT22;6879;51.368;6.782;2023-04-03T00:18:25;-1.20;99.90
13616;DHT22;6879;51.368;6.782;2023-04-03T00:21:37;-1.30;99.90
13616;DHT22;6879;51.368;6.782;2023-04-03T00:25:00;-1.30;99.90
13616;DHT22;6879;51.368;6.782;2023-04-03T00:27:32;-1.30;99.90
13616;DHT22;6879;51.368;6.782;2023-04-03T00:30:03;-1.20;99.90
13616;DHT22;6879;51.368;6.782;2023-04-03T00:32:36;-1.20;99.90
13616;DHT22;6879;51.368;6.782;2023-04-03T00:35:07;-1.30;99.90
13616;DHT22;6879;51.368;6.782;2023-04-03T00:37:39;-1.30;99.90
13616;DHT22;6879;51.368;6.782;2023-04-03T00:40:12;-1.40;99.90
13616;DHT22;6879;51.368;6.782;2023-04-03T00:42:43;-1.40;99.90
13616;DHT22;6879;51.368;6.782;2023-04-03T00:45:28;-1.50;99.90
13616;DHT22;6879;51.368;6.782;2023-04-03T00:48:00;-1.40;99.90
13616;DHT22;6879;51.368;6.782;2023-04-03T00:50:31;-1.50;99.90
13616;DHT22;6879;51.368;6.782;2023-04-03T00:53:04;-1.50;99.90
13616;DHT22;6879;51.368;6.782;2023-04-03T00:55:43;-1.50;99.90
13616;DHT22;6879;51.368;6.782;2023-04-03T00:58:18;-1.50;99.90
13616;DHT22;6879;51.368;6.782;2023-04-03T01:00:55;-1.60;99.90
13616;DHT22;6879;51.368;6.782;2023-04-03T01:03:29;-1.60;99.90
13616;DHT22;6879;51.368;6.782;2023-04-03T01:06:04;-1.60;99.90
13616;DHT22;6879;51.368;6.782;2023-04-03T01:08:35;-1.50;99.90
13616;DHT22;6879;51.368;6.782;2023-04-03T01:11:11;-1.40;99.90
13616;DHT22;6879;51.368;6.782;2023-04-03T01:13:43;-1.20;99.90
13616;DHT22;6879;51.368;6.782;2023-04-03T01:16:28;-1.00;99.90
13616;DHT22;6879;51.368;6.782;2023-04-03T01:19:08;-0.90;99.90
13616;DHT22;6879;51.368;6.782;2023-04-03T01:22:01;-0.90;99.90
13616;DHT22;6879;51.368;6.782;2023-04-03T01:24:36;-0.90;99.90
13616;DHT22;6879;51.368;6.782;2023-04-03T01:27:27;-0.90;99.90
13616;DHT22;6879;51.368;6.782;2023-04-03T01:30:05;-1.00;99.90
13616;DHT22;6879;51.368;6.782;2023-04-03T01:32:46;-0.80;99.90
13616;DHT22;6879;51.368;6.782;2023-04-03T01:35:34;-0.90;99.90
13616;DHT22;6879;51.368;6.782;2023-04-03T01:38:30;-0.80;99.90
13616;DHT22;6879;51.368;6.782;2023-04-03T01:41:03;-0.70;99.90
13616;DHT22;6879;51.368;6.782;2023-04-03T01:44:28;-0.70;99.90
13616;DHT22;6879;51.368;6.782;2023-04-03T01:47:19;-0.50;99.90
13616;DHT22;6879;51.368;6.782;2023-04-03T01:50:22;-0.40;99.90
13616;DHT22;6879;51.368;6.782;2023-04-03T01:53:06;-0.30;99.90
13616;DHT22;6879;51.368;6.782;2023-04-03T01:55:41;-0.20;99.90
13616;DHT22;6879;51.368;6.782;2023-04-03T01:58:14;-0.30;99.90
13616;DHT22;6879;51.368;6.782;2023-04-03T02:00:47;-0.20;99.90
13616;DHT22;6879;51.368;6.782;2023-04-03T02:03:23;-0.30;99.90
13616;DHT22;6879;51.368;6.782;2023-04-03T02:05:58;-0.30;99.90
13616;DHT22;6879;51.368;6.782;2023-04-03T02:08:38;-0.40;99.90
13616;DHT22;6879;51.368;6.782;2023-04-03T02:11:11;-0.30;99.90
13616;DHT22;6879;51.368;6.782;2023-04-03T02:13:45;-0.30;99.90
13616;DHT22;6879;51.368;6.782;2023-04-03T02:16:21;-0.20;99.90
13616;DHT22;6879;51.368;6.782;2023-04-03T02:18:54;-0.20;99.90
13616;DHT22;6879;51.368;6.782;2023-04-03T02:21:32;0.10;99.90
13616;DHT22;6879;51.368;6.782;2023-04-03T02:24:06;0.20;99.90
13616;DHT22;6879;51.368;6.782;2023-04-03T02:26:46;0.40;99.90
13616;DHT22;6879;51.368;6.782;2023-04-03T02:29:36;0.50;99.90
13616;DHT22;6879;51.368;6.782;2023-04-03T02:32:32;0.50;99.90
13616;DHT22;6879;51.368;6.782;2023-04-03T02:38:34;0.30;99.90
13616;DHT22;6879;51.368;6.782;2023-04-03T02:41:33;0.30;99.90
13616;DHT22;6879;51.368;6.782;2023-04-03T02:44:20;0.40;99.90
13616;DHT22;6879;51.368;6.782;2023-04-03T02:47:09;0.30;99.90
13616;DHT22;6879;51.368;6.782;2023-04-03T02:49:41;0.20;99.90
13616;DHT22;6879;51.368;6.782;2023-04-03T02:52:26;0.30;99.90
13616;DHT22;6879;51.368;6.782;2023-04-03T02:55:14;0.10;99.90
13616;DHT22;6879;51.368;6.782;2023-04-03T02:57:58;0.20;99.90
13616;DHT22;6879;51.368;6.782;2023-04-03T03:00:36;0.20;99.90
13616;DHT22;6879;51.368;6.782;2023-04-03T03:03:19;0.40;99.90
13616;DHT22;6879;51.368;6.782;2023-04-03T03:06:08;0.50;99.90
13616;DHT22;6879;51.368;6.782;2023-04-03T03:09:04;0.60;99.90
13616;DHT22;6879;51.368;6.782;2023-04-03T03:11:45;0.60;99.90
13616;DHT22;6879;51.368;6.782;2023-04-03T03:14:15;0.70;99.90
13616;DHT22;6879;51.368;6.782;2023-04-03T03:16:51;0.80;99.90
13616;DHT22;6879;51.368;6.782;2023-04-03T03:19:22;0.70;99.90
13616;DHT22;6879;51.368;6.782;2023-04-03T03:21:56;0.80;99.90
13616;DHT22;6879;51.368;6.782;2023-04-03T03:24:33;0.80;99.90
13616;DHT22;6879;51.368;6.782;2023-04-03T03:27:08;0.70;99.90
13616;DHT22;6879;51.368;6.782;2023-04-03T03:29:43;0.60;99.90
13616;DHT22;6879;51.368;6.782;2023-04-03T03:32:15;0.50;99.90
13616;DHT22;6879;51.368;6.782;2023-04-03T03:34:45;0.60;99.90
13616;DHT22;6879;51.368;6.782;2023-04-03T03:37:17;0.40;99.90
13616;DHT22;6879;51.368;6.782;2023-04-03T03:39:48;0.50;99.90
13616;DHT22;6879;51.368;6.782;2023-04-03T03:42:20;0.40;99.90
13616;DHT22;6879;51.368;6.782;2023-04-03T03:44:51;0.60;99.90
13616;DHT22;6879;51.368;6.782;2023-04-03T03:47:23;0.70;99.90
13616;DHT22;6879;51.368;6.782;2023-04-03T03:49:55;0.70;99.90
13616;DHT22;6879;51.368;6.782;2023-04-03T03:52:26;0.70;99.90
13616;DHT22;6879;51.368;6.782;2023-04-03T03:54:57;0.60;99.90
13616;DHT22;6879;51.368;6.782;2023-04-03T03:57:31;0.60;99.90
13616;DHT22;6879;51.368;6.782;2023-04-03T04:00:06;0.60;99.90
13616;DHT22;6879;51.368;6.782;2023-04-03T04:02:45;0.50;99.90
13616;DHT22;6879;51.368;6.782;2023-04-03T04:05:29;0.40;99.90
13616;DHT22;6879;51.368;6.782;2023-04-03T04:08:07;0.40;99.90
13616;DHT22;6879;51.368;6.782;2023-04-03T04:10:44;0.50;99.90
13616;DHT22;6879;51.368;6.782;2023-04-03T04:13:35;0.60;99.90
13616;DHT22;6879;51.368;6.782;2023-04-03T04:16:13;0.50;99.90
13616;DHT22;6879;51.368;6.782;2023-04-03T04:18:53;0.60;99.90
13616;DHT22;6879;51.368;6.782;2023-04-03T04:21:49;0.60;99.90
13616;DHT22;6879;51.368;6.782;2023-04-03T04:24:33;0.50;99.90
13616;DHT22;6879;51.368;6.782;2023-04-03T04:27:12;0.70;99.90
13616;DHT22;6879;51.368;6.782;2023-04-03T04:29:58;0.70;99.90
13616;DHT22;6879;51.368;6.782;2023-04-03T04:32:29;0.70;99.90
13616;DHT22;6879;51.368;6.782;2023-04-03T04:35:06;0.80;99.90
13616;DHT22;6879;51.368;6.782;2023-04-03T04:37:50;0.80;99.90
13616;DHT22;6879;51.368;6.782;2023-04-03T04:40:24;0.90;99.90
13616;DHT22;6879;51.368;6.782;2023-04-03T04:42:59;0.80;99.90
13616;DHT22;6879;51.368;6.782;2023-04-03T04:45:33;0.80;99.90
13616;DHT22;6879;51.368;6.782;2023-04-03T04:48:06;0.80;99.90
13616;DHT22;6879;51.368;6.782;2023-04-03T04:50:37;0.70;99.90
13616;DHT22;6879;51.368;6.782;2023-04-03T04:53:06;0.70;99.90
13616;DHT22;6879;51.368;6.782;2023-04-03T04:55:37;0.70;99.90
13616;DHT22;6879;51.368;6.782;2023-04-03T04:58:07;0.70;99.90
13616;DHT22;6879;51.368;6.782;2023-04-03T05:00:42;0.70;99.90
13616;DHT22;6879;51.368;6.782;2023-04-03T05:03:17;0.80;99.90
13616;DHT22;6879;51.368;6.782;2023-04-03T05:05:47;0.70;99.90
13616;DHT22;6879;51.368;6.782;2023-04-03T05:08:19;0.80;99.90
13616;DHT22;6879;51.368;6.782;2023-04-03T05:10:50;0.80;99.90
13616;DHT22;6879;51.368;6.782;2023-04-03T05:13:24;0.80;99.90
13616;DHT22;6879;51.368;6.782;2023-04-03T05:15:59;0.90;99.90
13616;DHT22;6879;51.368;6.782;2023-04-03T05:18:29;0.90;99.90
13616;DHT22;6879;51.368;6.782;2023-04-03T05:21:04;0.80;99.90
13616;DHT22;6879;51.368;6.782;2023-04-03T05:23:35;0.90;99.90
13616;DHT22;6879;51.368;6.782;2023-04-03T05:26:05;0.90;99.90
13616;DHT22;6879;51.368;6.782;2023-04-03T05:28:37;1.00;99.90
13616;DHT22;6879;51.368;6.782;2023-04-03T05:31:13;1.00;99.90
13616;DHT22;6879;51.368;6.782;2023-04-03T05:33:54;1.00;99.90
13616;DHT22;6879;51.368;6.782;2023-04-03T05:36:38;1.00;99.90
13616;DHT22;6879;51.368;6.782;2023-04-03T05:39:16;1.00;99.90
13616;DHT22;6879;51.368;6.782;2023-04-03T05:41:52;1.10;99.90
13616;DHT22;6879;51.368;6.782;2023-04-03T05:44:27;1.00;99.90
13616;DHT22;6879;51.368;6.782;2023-04-03T05:47:00;1.00;99.90
13616;DHT22;6879;51.368;6.782;2023-04-03T05:49:31;0.90;99.90
13616;DHT22;6879;51.368;6.782;2023-04-03T05:52:01;1.00;99.90
13616;DHT22;6879;51.368;6.782;2023-04-03T05:54:32;1.10;99.90
13616;DHT22;6879;51.368;6.782;2023-04-03T05:57:19;1.00;99.90
13616;DHT22;6879;51.368;6.782;2023-04-03T05:59:51;1.00;99.90
13616;DHT22;6879;51.368;6.782;2023-04-03T06:02:24;1.10;99.90
13616;DHT22;6879;51.368;6.782;2023-04-03T06:04:56;1.20;99.90
13616;DHT22;6879;51.368;6.782;2023-04-03T06:07:26;1.30;99.90
13616;DHT22;6879;51.368;6.782;2023-04-03T06:09:57;1.30;99.90
13616;DHT22;6879;51.368;6.782;2023-04-03T06:12:27;1.30;99.90
13616;DHT22;6879;51.368;6.782;2023-04-03T06:14:57;1.50;99.90
13616;DHT22;6879;51.368;6.782;2023-04-03T06:17:30;1.60;99.90
13616;DHT22;6879;51.368;6.782;2023-04-03T06:20:01;1.60;99.90
13616;DHT22;6879;51.368;6.782;2023-04-03T06:22:31;1.70;99.90
13616;DHT22;6879;51.368;6.782;2023-04-03T06:25:01;1.70;99.90
13616;DHT22;6879;51.368;6.782;2023-04-03T06:27:33;1.70;99.90
13616;DHT22;6879;51.368;6.782;2023-04-03T06:30:03;1.80;99.90
13616;DHT22;6879;51.368;6.782;2023-04-03T06:32:36;1.80;99.90
13616;DHT22;6879;51.368;6.782;2023-04-03T06:35:08;1.90;99.90
13616;DHT22;6879;51.368;6.782;2023-04-03T06:37:37;2.00;99.90
13616;DHT22;6879;51.368;6.782;2023-04-03T06:40:09;2.00;99.90
13616;DHT22;6879;51.368;6.782;2023-04-03T06:42:39;2.10;99.90
13616;DHT22;6879;51.368;6.782;2023-04-03T06:45:11;2.10;99.90
13616;DHT22;6879;51.368;6.782;2023-04-03T06:47:42;2.20;99.90
13616;DHT22;6879;51.368;6.782;2023-04-03T06:50:12;2.20;99.90
13616;DHT22;6879;51.368;6.782;2023-04-03T06:52:42;2.30;99.90
13616;DHT22;6879;51.368;6.782;2023-04-03T06:55:12;2.40;99.90
13616;DHT22;6879;51.368;6.782;2023-04-03T06:57:41;2.40;99.90
13616;DHT22;6879;51.368;6.782;2023-04-03T07:00:12;2.50;99.90
13616;DHT22;6879;51.368;6.782;2023-04-03T07:02:45;2.50;99.90
13616;DHT22;6879;51.368;6.782;2023-04-03T07:05:16;2.50;99.90
13616;DHT22;6879;51.368;6.782;2023-04-03T07:07:48;2.60;99.90
13616;DHT22;6879;51.368;6.782;2023-04-03T07:10:17;2.70;99.90
13616;DHT22;6879;51.368;6.782;2023-04-03T07:12:47;2.90;99.90
13616;DHT22;6879;51.368;6.782;2023-04-03T07:15:19;2.90;99.90
13616;DHT22;6879;51.368;6.782;2023-04-03T07:18:01;2.90;99.90
13616;DHT22;6879;51.368;6.782;2023-04-03T07:20:34;3.00;99.90
13616;DHT22;6879;51.368;6.782;2023-04-03T07:23:10;3.00;99.90
13616;DHT22;6879;51.368;6.782;2023-04-03T07:25:45;3.20;99.90
13616;DHT22;6879;51.368;6.782;2023-04-03T07:28:22;3.30;99.90
13616;DHT22;6879;51.368;6.782;2023-04-03T07:31:01;3.40;99.90
13616;DHT22;6879;51.368;6.782;2023-04-03T07:33:34;3.40;99.90
13616;DHT22;6879;51.368;6.782;2023-04-03T07:36:06;3.50;99.90
13616;DHT22;6879;51.368;6.782;2023-04-03T07:38:37;3.50;99.90
13616;DHT22;6879;51.368;6.782;2023-04-03T07:41:13;3.50;99.90
13616;DHT22;6879;51.368;6.782;2023-04-03T07:43:46;3.60;99.90
13616;DHT22;6879;51.368;6.782;2023-04-03T07:46:17;3.90;99.90
13616;DHT22;6879;51.368;6.782;2023-04-03T07:48:57;3.90;99.60
13616;DHT22;6879;51.368;6.782;2023-04-03T07:51:28;4.00;99.50
13616;DHT22;6879;51.368;6.782;2023-04-03T07:53:57;4.10;98.70
13616;DHT22;6879;51.368;6.782;2023-04-03T07:56:28;4.10;97.80
13616;DHT22;6879;51.368;6.782;2023-04-03T07:59:00;4.10;97.30
13616;DHT22;6879;51.368;6.782;2023-04-03T08:01:32;4.20;97.30
13616;DHT22;6879;51.368;6.782;2023-04-03T08:04:11;4.30;97.30
13616;DHT22;6879;51.368;6.782;2023-04-03T08:06:47;4.40;96.40
13616;DHT22;6879;51.368;6.782;2023-04-03T08:09:19;4.50;95.10
13616;DHT22;6879;51.368;6.782;2023-04-03T08:11:52;4.50;93.90
13616;DHT22;6879;51.368;6.782;2023-04-03T08:14:22;4.60;93.90
13616;DHT22;6879;51.368;6.782;2023-04-03T08:16:53;4.70;93.60
13616;DHT22;6879;51.368;6.782;2023-04-03T08:19:29;4.70;93.60
13616;DHT22;6879;51.368;6.782;2023-04-03T08:22:02;4.70;92.10
13616;DHT22;6879;51.368;6.782;2023-04-03T08:24:38;4.80;93.20
13616;DHT22;6879;51.368;6.782;2023-04-03T08:27:25;4.90;90.70
13616;DHT22;6879;51.368;6.782;2023-04-03T08:29:59;4.90;89.70
13616;DHT22;6879;51.368;6.782;2023-04-03T08:32:33;4.90;89.50
13616;DHT22;6879;51.368;6.782;2023-04-03T08:35:08;5.10;89.40
13616;DHT22;6879;51.368;6.782;2023-04-03T08:37:39;5.20;88.90
13616;DHT22;6879;51.368;6.782;2023-04-03T08:40:16;5.30;87.00
13616;DHT22;6879;51.368;6.782;2023-04-03T08:42:57;5.20;86.00
13616;DHT22;6879;51.368;6.782;2023-04-03T08:45:43;5.30;87.20
13616;DHT22;6879;51.368;6.782;2023-04-03T08:48:20;5.50;87.30
13616;DHT22;6879;51.368;6.782;2023-04-03T08:50:57;5.60;86.10
13616;DHT22;6879;51.368;6.782;2023-04-03T08:53:32;5.60;84.00
13616;DHT22;6879;51.368;6.782;2023-04-03T08:56:06;5.60;84.50
13616;DHT22;6879;51.368;6.782;2023-04-03T08:58:42;5.60;82.20
13616;DHT22;6879;51.368;6.782;2023-04-03T09:01:19;5.70;83.10
13616;DHT22;6879;51.368;6.782;2023-04-03T09:03:55;5.80;83.30
13616;DHT22;6879;51.368;6.782;2023-04-03T09:06:31;5.80;83.20
13616;DHT22;6879;51.368;6.782;2023-04-03T09:09:18;6.00;82.40
13616;DHT22;6879;51.368;6.782;2023-04-03T09:12:03;6.00;81.60
13616;DHT22;6879;51.368;6.782;2023-04-03T09:14:41;6.00;81.20
13616;DHT22;6879;51.368;6.782;2023-04-03T09:17:18;6.00;80.40
13616;DHT22;6879;51.368;6.782;2023-04-03T09:19:56;6.00;79.80
13616;DHT22;6879;51.368;6.782;2023-04-03T09:22:31;6.10;80.10
13616;DHT22;6879;51.368;6.782;2023-04-03T09:25:14;6.40;78.60
13616;DHT22;6879;51.368;6.782;2023-04-03T09:27:44;6.40;77.50
13616;DHT22;6879;51.368;6.782;2023-04-03T09:30:16;6.40;76.40
13616;DHT22;6879;51.368;6.782;2023-04-03T09:32:47;6.40;75.70
13616;DHT22;6879;51.368;6.782;2023-04-03T09:35:21;6.30;76.20
13616;DHT22;6879;51.368;6.782;2023-04-03T09:38:20;6.40;77.00
13616;DHT22;6879;51.368;6.782;2023-04-03T09:41:05;6.50;74.80
13616;DHT22;6879;51.368;6.782;2023-04-03T09:43:37;6.60;77.10
13616;DHT22;6879;51.368;6.782;2023-04-03T09:46:30;6.60;75.70
13616;DHT22;6879;51.368;6.782;2023-04-03T09:49:02;6.80;76.80
13616;DHT22;6879;51.368;6.782;2023-04-03T09:51:38;6.80;74.30
13616;DHT22;6879;51.368;6.782;2023-04-03T09:54:32;6.90;75.10
13616;DHT22;6879;51.368;6.782;2023-04-03T09:57:08;6.90;74.80
13616;DHT22;6879;51.368;6.782;2023-04-03T09:59:45;7.10;76.00
13616;DHT22;6879;51.368;6.782;2023-04-03T10:02:28;7.50;74.00
13616;DHT22;6879;51.368;6.782;2023-04-03T10:05:00;7.90;73.90
13616;DHT22;6879;51.368;6.782;2023-04-03T10:07:37;8.50;72.60
13616;DHT22;6879;51.368;6.782;2023-04-03T10:10:21;8.40;70.30
13616;DHT22;6879;51.368;6.782;2023-04-03T10:13:04;8.90;70.10
13616;DHT22;6879;51.368;6.782;2023-04-03T10:15:42;9.60;69.40
13616;DHT22;6879;51.368;6.782;2023-04-03T10:18:27;9.90;68.10
13616;DHT22;6879;51.368;6.782;2023-04-03T10:21:02;10.10;67.40
13616;DHT22;6879;51.368;6.782;2023-04-03T10:23:47;10.20;67.10
13616;DHT22;6879;51.368;6.782;2023-04-03T10:26:29;10.60;67.60
13616;DHT22;6879;51.368;6.782;2023-04-03T10:29:09;10.50;66.40
13616;DHT22;6879;51.368;6.782;2023-04-03T10:31:45;10.20;67.00
13616;DHT22;6879;51.368;6.782;2023-04-03T10:34:21;10.60;68.10
13616;DHT22;6879;51.368;6.782;2023-04-03T10:36:57;11.10;67.10
13616;DHT22;6879;51.368;6.782;2023-04-03T10:39:34;10.80;67.30
13616;DHT22;6879;51.368;6.782;2023-04-03T10:42:16;11.30;67.70
13616;DHT22;6879;51.368;6.782;2023-04-03T10:45:15;12.20;66.80
13616;DHT22;6879;51.368;6.782;2023-04-03T10:47:56;12.90;65.10
13616;DHT22;6879;51.368;6.782;2023-04-03T10:50:38;13.10;68.70
13616;DHT22;6879;51.368;6.782;2023-04-03T10:53:14;13.40;66.80
13616;DHT22;6879;51.368;6.782;2023-04-03T10:55:54;13.70;65.40
13616;DHT22;6879;51.368;6.782;2023-04-03T10:58:32;12.90;68.40
13616;DHT22;6879;51.368;6.782;2023-04-03T11:01:06;13.00;68.40
13616;DHT22;6879;51.368;6.782;2023-04-03T11:03:40;13.40;68.40
13616;DHT22;6879;51.368;6.782;2023-04-03T11:06:12;13.80;64.50
13616;DHT22;6879;51.368;6.782;2023-04-03T11:08:48;13.20;64.40
13616;DHT22;6879;51.368;6.782;2023-04-03T11:11:26;13.00;65.20
13616;DHT22;6879;51.368;6.782;2023-04-03T11:14:03;12.40;65.60
13616;DHT22;6879;51.368;6.782;2023-04-03T11:16:36;13.50;65.40
13616;DHT22;6879;51.368;6.782;2023-04-03T11:19:21;14.50;64.50
13616;DHT22;6879;51.368;6.782;2023-04-03T11:21:54;13.90;64.30
13616;DHT22;6879;51.368;6.782;2023-04-03T11:24:27;13.90;64.00
13616;DHT22;6879;51.368;6.782;2023-04-03T11:26:59;13.60;64.60
13616;DHT22;6879;51.368;6.782;2023-04-03T11:29:34;13.90;63.70
13616;DHT22;6879;51.368;6.782;2023-04-03T11:32:11;14.30;63.90
13616;DHT22;6879;51.368;6.782;2023-04-03T11:34:46;13.60;61.30
13616;DHT22;6879;51.368;6.782;2023-04-03T11:37:25;13.30;63.10
13616;DHT22;6879;51.368;6.782;2023-04-03T11:39:58;13.40;64.90
13616;DHT22;6879;51.368;6.782;2023-04-03T11:42:34;13.80;66.00
13616;DHT22;6879;51.368;6.782;2023-04-03T11:45:31;14.90;68.10
13616;DHT22;6879;51.368;6.782;2023-04-03T11:48:04;14.60;65.50
13616;DHT22;6879;51.368;6.782;2023-04-03T11:50:50;13.30;63.70
13616;DHT22;6879;51.368;6.782;2023-04-03T11:53:34;13.60;64.10
13616;DHT22;6879;51.368;6.782;2023-04-03T12:01:50;15.60;60.50
13616;DHT22;6879;51.368;6.782;2023-04-03T12:04:22;15.60;61.80
13616;DHT22;6879;51.368;6.782;2023-04-03T12:07:01;16.40;61.60
13616;DHT22;6879;51.368;6.782;2023-04-03T12:09:35;15.70;59.40
13616;DHT22;6879;51.368;6.782;2023-04-03T12:12:31;14.30;60.80
13616;DHT22;6879;51.368;6.782;2023-04-03T12:18:44;15.80;60.90
13616;DHT22;6879;51.368;6.782;2023-04-03T12:21:24;16.00;58.90
13616;DHT22;6879;51.368;6.782;2023-04-03T12:24:04;15.20;58.70
13616;DHT22;6879;51.368;6.782;2023-04-03T12:26:38;15.80;60.30
13616;DHT22;6879;51.368;6.782;2023-04-03T12:29:19;16.90;58.30
13616;DHT22;6879;51.368;6.782;2023-04-03T12:32:00;17.10;56.20
13616;DHT22;6879;51.368;6.782;2023-04-03T12:35:05;15.30;59.20
13616;DHT22;6879;51.368;6.782;2023-04-03T12:38:17;15.90;56.70
13616;DHT22;6879;51.368;6.782;2023-04-03T12:40:51;14.80;56.90
13616;DHT22;6879;51.368;6.782;2023-04-03T12:43:47;14.00;59.10
13616;DHT22;6879;51.368;6.782;2023-04-03T12:46:23;14.70;58.70
13616;DHT22;6879;51.368;6.782;2023-04-03T12:49:12;15.60;56.80
13616;DHT22;6879;51.368;6.782;2023-04-03T12:51:52;16.00;56.90
13616;DHT22;6879;51.368;6.782;2023-04-03T12:54:30;16.10;55.90
13616;DHT22;6879;51.368;6.782;2023-04-03T15:18:37;18.90;51.00
13616;DHT22;6879;51.368;6.782;2023-04-03T15:27:08;18.60;51.10
13616;DHT22;6879;51.368;6.782;2023-04-03T17:04:45;15.90;55.30
13616;DHT22;6879;51.368;6.782;2023-04-03T17:08:49;14.40;56.70
